ADDS TAF Board (Experimental) INFO

IDs: Format: Expanded Condensed

Updated at: 0755 UTC 23 Oct 2014

KLAX - Los Angeles Intl, CA, US

Issued at 0525 UTC 23 Oct 2014
Time0753Z23/08Z23/09Z23/10Z23/11Z23/12Z23/13Z23/14Z23/15Z23/16Z23/17Z23/18Z23/19Z23/20Z
TypeOBSPRVLPRVLPRVLPRVLPRVLPRVLPRVLPRVLPRVLPRVLPRVLPRVLPRVL
VIS10>6>6>6>6>6>6>6>6>6>6>6>6>6
CIG----------------------------
CoverFEWSKCSKCSKCSKCSKCSKCSKCSKCSKCSKCSKCSKCSKC
FltCat--VFRVFRVFRVFRVFRVFRVFRVFRVFRVFRVFRVFRVFR
WX----------------------------
WDirVRBVRBVRBVRBVRBVRBVRBVRBVRBVRBVRBVRB260260
WSpd0333333333331212
WGst----------------------------
R06/24
XWndVRBVRBVRBVRBVRBVRBVRBVRBVRBVRBVRBVRB-1-1
HWndVRBVRBVRBVRBVRBVRBVRBVRBVRBVRBVRBVRB-12-12
R07/25
XWndVRBVRBVRBVRBVRBVRBVRBVRBVRBVRBVRBVRB-1-1
HWndVRBVRBVRBVRBVRBVRBVRBVRBVRBVRBVRBVRB-12-12
Raw TAF
KLAX 230525Z 2306/2412 VRB03KT P6SM SKC
  FM231900 26012KT P6SM SKC
  FM240300 25006KT P6SM SKC
  FM240800 VRB03KT P6SM SKC


Raw METAR
KLAX 230753Z 00000KT 10SM FEW250 18/18 A2996 RMK AO2 SLP142 T01830178 402610178
KLAX 230653Z VRB03KT 10SM FEW250 19/19 A2996 RMK AO2 SLP143 T01940189

TAF Board Legend

Hazard VFR MVFR IFR LIFR
Visibility (sm) >5 3≤X≤5 1≤X<3 <1
Ceiling (100 ft) >30 10≤X≤30 5≤X<10 <5
Wind Speed (kt) <10 10≤X<20 20≤X<30 ≥30
Wind Gust (kt) <15 15≤X<25 25≤X<35 ≥35
Weather No Wx Reported VCTS,-TS,-FZRA TS,FZRA +TS,+FZRA


Page loaded:  07:55 UTC  |   12:55 AM Pacific  |   01:55 AM Mountain  |   02:55 AM Central  |   03:55 AM Eastern

 

ADVISORIES

FORECASTS

FORECASTS

OBSERVATIONS

USER TOOLS

ABOUT US